Time;durP1;ratioP1;P1;durP2;ratioP2;P2;SDS_P1;SDS_P2;PMS_P1;PMS_P2;Temp;Humidity;BMP_temperature;BMP_pressure;BME280_temperature;BME280_humidity;BME280_pressure;Samples;Min_cycle;Max_cycle;Signal;HPM_P1;HPM_P2
2022/04/17 00:00:20;;;;;;;34.10;7.73;;;;;;;0.63;56.63;102938.47;5051480;28;20115;-65
2022/04/17 00:02:46;;;;;;;39.40;9.90;;;;;;;0.55;56.26;102922.06;5051518;28;20821;-70
2022/04/17 00:05:11;;;;;;;27.33;8.90;;;;;;;0.51;56.08;102926.53;5051154;28;20488;-68
2022/04/17 00:07:37;;;;;;;37.07;7.13;;;;;;;0.40;57.21;102901.56;5051286;28;20071;-68
2022/04/17 00:10:03;;;;;;;30.07;6.73;;;;;;;0.55;56.75;102933.41;5050164;28;20029;-70
2022/04/17 00:12:29;;;;;;;35.63;9.60;;;;;;;0.52;57.01;102927.41;5052482;28;20036;-65
2022/04/17 00:14:55;;;;;;;27.63;9.23;;;;;;;0.52;56.54;102928.25;5051231;28;20813;-68
2022/04/17 00:17:22;;;;;;;30.50;8.13;;;;;;;0.48;56.95;102920.53;5053079;28;20057;-69
2022/04/17 00:19:47;;;;;;;32.83;7.97;;;;;;;0.52;56.69;102930.03;5055165;28;20309;-66
2022/04/17 00:22:13;;;;;;;26.47;8.80;;;;;;;0.46;57.09;102923.19;5055144;28;20828;-69
2022/04/17 00:24:39;;;;;;;25.03;8.90;;;;;;;0.49;57.65;102937.97;5055189;28;20506;-68
2022/04/17 00:27:08;;;;;;;29.57;9.10;;;;;;;0.44;57.64;102932.88;5056604;28;20048;-66
2022/04/17 00:29:37;;;;;;;18.03;7.90;;;;;;;0.47;56.66;102940.66;5055617;28;20663;-69
2022/04/17 00:32:03;;;;;;;26.08;8.10;;;;;;;0.42;56.80;102929.44;5057964;28;20279;-69
2022/04/17 00:34:30;;;;;;;25.63;7.63;;;;;;;0.44;57.00;102934.63;5055282;28;20185;-69
2022/04/17 00:36:59;;;;;;;28.70;7.90;;;;;;;0.41;57.49;102935.59;5053685;28;20274;-69
2022/04/17 00:39:28;;;;;;;;;;;;;;;0.45;56.55;102931.13;5055135;28;20395;-70
2022/04/17 00:41:56;;;;;;;23.50;6.40;;;;;;;0.37;56.98;102922.63;5056907;28;19936;-68
2022/04/17 00:44:22;;;;;;;19.70;6.30;;;;;;;0.39;57.94;102931.31;5054639;28;20405;-69
2022/04/17 00:46:48;;;;;;;21.70;6.33;;;;;;;0.37;58.62;102933.09;5054422;28;20032;-70
2022/04/17 00:49:14;;;;;;;19.23;6.63;;;;;;;0.31;57.72;102923.66;5054594;28;20028;-69
2022/04/17 00:51:42;;;;;;;34.90;8.03;;;;;;;0.25;57.92;102918.56;5054704;28;20275;-67
2022/04/17 00:54:09;;;;;;;19.10;6.55;;;;;;;0.12;58.02;102897.13;5054807;28;20037;-69
2022/04/17 00:56:59;;;;;;;16.33;6.43;;;;;;;0.24;57.74;102922.94;5055720;28;20531;-67
2022/04/17 00:59:25;;;;;;;25.67;5.97;;;;;;;0.23;57.78;102931.72;5054317;28;20842;-68
2022/04/17 01:01:52;;;;;;;19.57;6.83;;;;;;;0.11;57.71;102915.50;5053299;28;20821;-69
2022/04/17 01:04:17;;;;;;;13.57;5.13;;;;;;;0.22;57.72;102935.25;5054421;28;20264;-69
2022/04/17 01:06:44;;;;;;;20.73;6.23;;;;;;;0.24;57.47;102946.53;5054336;28;20340;-66
2022/04/17 01:09:10;;;;;;;12.50;5.37;;;;;;;0.20;57.48;102942.28;5054248;28;20131;-66
2022/04/17 01:11:38;;;;;;;13.73;5.40;;;;;;;0.20;57.42;102947.53;5055257;28;20272;-69
2022/04/17 01:14:05;;;;;;;17.50;5.75;;;;;;;0.17;57.59;102931.91;5054812;28;20268;-66
2022/04/17 01:16:31;;;;;;;12.57;4.63;;;;;;;0.24;57.04;102951.78;5054594;28;20059;-68
2022/04/17 01:19:11;;;;;;;17.87;5.67;;;;;;;0.25;57.99;102944.78;5054275;28;20284;-67
2022/04/17 01:21:38;;;;;;;14.90;5.20;;;;;;;0.15;57.74;102944.19;5054079;28;20072;-67
2022/04/17 01:26:57;;;;;;;12.97;5.40;;;;;;;0.20;58.94;102952.78;5055175;28;20264;-69
2022/04/17 01:29:35;;;;;;;11.13;6.00;;;;;;;0.14;58.33;102945.09;5055372;28;20349;-67
2022/04/17 01:32:02;;;;;;;11.77;5.70;;;;;;;0.11;58.31;102945.19;5053921;28;20278;-67
2022/04/17 01:34:28;;;;;;;11.87;6.93;;;;;;;0.18;59.00;102959.81;5053589;28;20729;-66
2022/04/17 01:36:54;;;;;;;9.30;5.10;;;;;;;0.19;58.92;102961.53;5052763;28;20318;-67
2022/04/17 01:39:20;;;;;;;16.57;6.83;;;;;;;0.19;58.93;102969.41;5052476;28;20032;-69
2022/04/17 01:41:48;;;;;;;9.73;5.77;;;;;;;0.15;59.78;102959.91;5054797;28;20033;-65
2022/04/17 01:44:16;;;;;;;12.20;5.60;;;;;;;0.01;59.67;102943.72;5052648;28;20354;-69
2022/04/17 01:46:42;;;;;;;11.13;5.97;;;;;;;0.07;60.21;102956.66;5053449;28;20264;-66
2022/04/17 01:49:08;;;;;;;16.40;5.40;;;;;;;0.08;60.39;102955.75;5053304;28;20500;-69
2022/04/17 01:51:38;;;;;;;14.37;6.10;;;;;;;0.03;61.36;102943.69;5053525;28;20271;-68
2022/04/17 01:54:05;;;;;;;12.43;5.50;;;;;;;0.11;61.84;102968.75;5053674;28;20099;-68
2022/04/17 01:56:31;;;;;;;9.47;6.73;;;;;;;0.10;61.61;102961.81;5053595;28;20362;-68
2022/04/17 01:58:56;;;;;;;10.07;5.83;;;;;;;0.08;62.15;102966.22;5053839;28;20371;-69
2022/04/17 02:01:22;;;;;;;15.80;7.27;;;;;;;0.08;62.81;102953.13;5053108;28;20065;-68
2022/04/17 02:03:47;;;;;;;14.47;5.13;;;;;;;0.05;62.87;102952.34;5052925;28;20036;-67
2022/04/17 02:06:13;;;;;;;12.47;7.47;;;;;;;0.02;62.92;102948.06;5053534;28;20072;-64
2022/04/17 02:08:38;;;;;;;13.60;5.33;;;;;;;-0.02;63.31;102936.78;5053111;28;20033;-68
2022/04/17 02:11:04;;;;;;;10.43;5.57;;;;;;;-0.03;63.68;102940.28;5053419;28;20560;-66
2022/04/17 02:13:30;;;;;;;7.37;4.73;;;;;;;-0.03;63.97;102952.53;5054431;28;20033;-69
2022/04/17 02:15:56;;;;;;;9.50;5.33;;;;;;;-0.22;63.61;102925.13;5052913;28;20032;-67
2022/04/17 02:18:22;;;;;;;8.30;5.37;;;;;;;-0.23;64.32;102929.50;5051569;28;20287;-68
2022/04/17 02:20:48;;;;;;;11.87;5.40;;;;;;;-0.04;63.72;102966.53;5052681;28;20041;-69
2022/04/17 02:23:14;;;;;;;10.17;6.27;;;;;;;-0.10;64.21;102961.47;5052735;28;20275;-69
2022/04/17 02:25:40;;;;;;;10.93;4.73;;;;;;;-0.05;64.85;102967.44;5052822;28;20643;-66
2022/04/17 02:28:07;;;;;;;11.93;5.83;;;;;;;-0.03;63.91;102976.09;5052995;28;20085;-69
2022/04/17 02:30:33;;;;;;;10.03;5.57;;;;;;;-0.15;63.21;102950.25;5052590;28;20622;-70
2022/04/17 02:32:59;;;;;;;10.93;5.70;;;;;;;-0.04;64.44;102970.00;5051183;28;20271;-69
2022/04/17 02:35:24;;;;;;;9.67;5.47;;;;;;;-0.02;64.55;102967.34;5052720;28;20039;-70
2022/04/17 02:37:49;;;;;;;13.67;5.80;;;;;;;-0.03;64.67;102968.25;5052640;28;20571;-68
2022/04/17 02:40:15;;;;;;;16.03;6.03;;;;;;;-0.05;64.14;102964.81;5051926;28;20171;-66
2022/04/17 02:42:40;;;;;;;11.03;5.77;;;;;;;-0.03;64.26;102963.00;5053092;28;20377;-67
2022/04/17 02:45:06;;;;;;;14.93;6.13;;;;;;;-0.23;64.14;102936.50;5052539;28;20029;-69
2022/04/17 02:47:44;;;;;;;15.50;6.80;;;;;;;-0.07;64.01;102964.00;5052244;28;20037;-65
2022/04/17 02:50:18;;;;;;;18.60;5.37;;;;;;;-0.07;64.12;102969.22;5052387;28;20514;-69
2022/04/17 02:52:44;;;;;;;11.83;5.73;;;;;;;-0.06;63.82;102970.97;5052530;28;20750;-67
2022/04/17 02:55:13;;;;;;;9.33;5.37;;;;;;;-0.05;63.56;102967.44;5052284;28;20778;-66
2022/04/17 02:57:38;;;;;;;16.13;5.25;;;;;;;-0.08;64.02;102965.75;5052579;28;20366;-67
2022/04/17 03:00:08;;;;;;;12.97;5.00;;;;;;;0.00;63.48;102970.81;5054076;28;20087;-67
2022/04/17 03:05:36;;;;;;;12.40;4.53;;;;;;;-0.01;62.66;102966.44;5053221;28;20272;-68
2022/04/17 03:08:07;;;;;;;10.73;4.70;;;;;;;-0.04;61.93;102964.78;5052252;28;20333;-69
2022/04/17 03:10:34;;;;;;;16.90;6.30;;;;;;;-0.01;62.67;102971.69;5052480;28;20321;-70
2022/04/17 03:13:00;;;;;;;13.63;5.20;;;;;;;0.04;62.19;102967.22;5052619;28;20278;-70
2022/04/17 03:15:25;;;;;;;6.90;4.30;;;;;;;0.11;61.96;102968.75;5052139;28;20267;-69
2022/04/17 03:17:52;;;;;;;9.53;4.77;;;;;;;0.11;62.25;102966.13;5053196;28;20108;-67
2022/04/17 03:20:21;;;;;;;9.87;5.00;;;;;;;0.16;62.69;102963.38;5053811;28;20052;-68
2022/04/17 03:22:48;;;;;;;13.95;4.50;;;;;;;0.14;62.76;102958.19;5053225;28;20313;-69
2022/04/17 03:25:14;;;;;;;18.97;5.90;;;;;;;0.23;62.67;102968.41;5052005;28;20127;-68
2022/04/17 03:27:43;;;;;;;7.67;4.50;;;;;;;0.25;62.50;102961.38;5052131;28;20354;-66
2022/04/17 03:30:09;;;;;;;9.87;5.20;;;;;;;0.29;62.78;102968.25;5051701;28;20183;-70
2022/04/17 03:32:35;;;;;;;10.17;4.73;;;;;;;0.16;63.18;102945.03;5051694;28;20358;-70
2022/04/17 03:35:01;;;;;;;7.33;4.43;;;;;;;0.35;62.91;102966.38;5051626;28;20354;-68
2022/04/17 03:37:26;;;;;;;11.10;4.40;;;;;;;0.48;63.34;102952.00;5051548;28;20037;-66
2022/04/17 03:39:53;;;;;;;6.23;4.43;;;;;;;1.36;61.38;102949.28;5050310;28;20033;-67
2022/04/17 03:42:21;;;;;;;10.80;4.90;;;;;;;2.42;58.48;102960.47;5051920;28;20396;-65
2022/04/17 03:44:47;;;;;;;8.02;4.80;;;;;;;3.21;55.88;102969.72;5051972;28;20279;-69
2022/04/17 03:47:13;;;;;;;7.60;4.83;;;;;;;3.41;55.10;102963.63;5050326;28;20128;-68
2022/04/17 03:49:39;;;;;;;7.80;4.57;;;;;;;3.54;54.42;102964.00;5051584;28;20737;-67
2022/04/17 03:52:05;;;;;;;6.80;4.43;;;;;;;3.86;53.63;102960.00;5054890;28;20079;-69
2022/04/17 03:54:30;;;;;;;7.67;4.90;;;;;;;4.11;53.68;102965.94;5055528;28;20119;-67
2022/04/17 03:56:56;;;;;;;5.93;3.87;;;;;;;3.86;53.77;102945.03;5055734;28;20262;-67
2022/04/17 03:59:22;;;;;;;12.73;5.27;;;;;;;3.41;55.39;102959.22;5056699;28;20450;-68
2022/04/17 04:01:47;;;;;;;7.50;4.67;;;;;;;2.79;56.61;102956.44;5054158;28;20350;-67
2022/04/17 04:04:16;;;;;;;8.33;4.40;;;;;;;2.40;58.07;102966.69;5055412;28;20067;-68
2022/04/17 04:06:42;;;;;;;7.67;4.10;;;;;;;2.07;59.49;102964.38;5055955;28;20388;-65
2022/04/17 04:09:09;;;;;;;13.20;4.57;;;;;;;1.84;61.04;102966.94;5055118;28;20349;-66
2022/04/17 04:11:35;;;;;;;12.37;4.97;;;;;;;1.62;62.11;102965.94;5054880;28;20037;-64
2022/04/17 04:14:03;;;;;;;7.30;4.27;;;;;;;1.46;62.64;102974.34;5056187;28;20359;-68
2022/04/17 04:16:29;;;;;;;6.97;4.18;;;;;;;1.33;63.23;102975.63;5055719;28;20270;-69
2022/04/17 04:18:59;;;;;;;5.17;3.50;;;;;;;1.25;64.34;102972.38;5056479;28;20056;-69
2022/04/17 04:21:25;;;;;;;6.37;3.97;;;;;;;1.22;64.96;102978.59;5055510;28;20351;-65
2022/04/17 04:23:51;;;;;;;6.63;4.00;;;;;;;1.20;65.25;102969.06;5055893;28;20630;-68
2022/04/17 04:26:20;;;;;;;8.70;4.87;;;;;;;1.18;65.39;102976.97;5055865;28;20635;-68
2022/04/17 04:28:45;;;;;;;12.05;4.53;;;;;;;1.14;65.47;102970.09;5055921;28;20036;-66
2022/04/17 04:31:17;;;;;;;7.83;5.53;;;;;;;1.16;64.61;102968.31;5055624;28;20052;-68
2022/04/17 04:33:43;;;;;;;5.03;4.30;;;;;;;1.16;64.38;102968.31;5038114;28;20055;-65
2022/04/17 04:36:11;;;;;;;11.97;4.60;;;;;;;1.17;65.12;102972.63;5054395;28;20282;-67
2022/04/17 04:38:37;;;;;;;9.10;5.33;;;;;;;1.17;65.42;102972.63;5054888;28;20263;-69
2022/04/17 04:41:03;;;;;;;8.93;4.80;;;;;;;1.16;65.53;102973.56;5054697;28;20276;-68
2022/04/17 04:43:29;;;;;;;8.33;4.13;;;;;;;1.09;66.29;102963.28;5055566;28;20263;-67
2022/04/17 04:46:07;;;;;;;13.60;4.37;;;;;;;1.09;66.32;102955.41;5054743;28;20271;-67
2022/04/17 04:51:23;;;;;;;7.17;4.80;;;;;;;1.09;66.26;102960.66;5054843;28;20041;-67
2022/04/17 04:53:49;;;;;;;9.83;4.43;;;;;;;1.15;65.56;102965.69;5054652;28;20675;-67
2022/04/17 04:56:18;;;;;;;10.57;4.30;;;;;;;1.16;66.17;102962.19;5054485;28;20069;-66
2022/04/17 04:58:43;;;;;;;6.20;4.38;;;;;;;1.18;66.16;102957.75;5053717;28;20272;-66
2022/04/17 05:01:09;;;;;;;8.03;3.83;;;;;;;1.32;65.52;102963.41;5054604;28;20175;-69
2022/04/17 05:03:35;;;;;;;12.20;4.07;;;;;;;1.48;64.81;102959.38;5053660;28;20041;-72
2022/04/17 05:06:02;;;;;;;6.43;4.20;;;;;;;1.60;64.19;102958.09;5054499;28;20270;-69
2022/04/17 05:08:27;;;;;;;10.40;4.33;;;;;;;1.74;63.49;102965.53;5054326;28;20033;-67
2022/04/17 05:10:53;;;;;;;7.33;4.10;;;;;;;1.82;62.95;102953.84;5054064;28;20294;-69
2022/04/17 05:13:19;;;;;;;10.43;5.37;;;;;;;1.97;62.38;102962.97;5054278;28;20045;-69
2022/04/17 05:15:48;;;;;;;6.77;3.73;;;;;;;2.00;61.43;102954.97;5054744;28;20735;-68
2022/04/17 05:18:15;;;;;;;5.95;3.38;;;;;;;2.15;61.29;102971.97;5054011;28;20420;-70
2022/04/17 05:20:40;;;;;;;11.07;4.40;;;;;;;2.23;61.47;102977.81;5053914;28;20080;-68
2022/04/17 05:23:28;;;;;;;8.30;4.07;;;;;;;2.30;61.34;102975.81;5054191;28;20322;-70
2022/04/17 05:25:57;;;;;;;5.75;4.30;;;;;;;2.35;61.36;102976.53;5039218;28;20086;-68
2022/04/17 05:28:23;;;;;;;8.63;4.47;;;;;;;2.45;61.16;102981.38;5058956;28;20037;-72
2022/04/17 05:30:49;;;;;;;9.20;4.20;;;;;;;2.50;61.11;102981.22;5056853;28;20041;-73
2022/04/17 05:33:21;;;;;;;8.47;4.80;;;;;;;2.61;61.83;102984.31;5053989;28;20263;-69
2022/04/17 05:35:50;;;;;;;10.00;4.70;;;;;;;2.69;59.95;102981.41;5052268;28;20037;-78
2022/04/17 05:38:16;;;;;;;16.23;5.70;;;;;;;2.78;58.30;102989.81;5053544;28;20271;-76
2022/04/17 05:40:43;;;;;;;10.57;4.63;;;;;;;2.87;57.27;102983.31;5054221;28;20508;-73
2022/04/17 05:43:12;;;;;;;10.83;4.93;;;;;;;2.92;57.54;102975.28;5056243;28;20306;-72
2022/04/17 05:45:39;;;;;;;11.40;5.50;;;;;;;2.98;56.46;102983.78;5058038;28;20267;-71
2022/04/17 05:48:06;;;;;;;9.50;3.97;;;;;;;2.96;56.84;102961.06;5053622;28;20746;-67
2022/04/17 05:50:32;;;;;;;8.23;4.30;;;;;;;3.16;56.38;102987.44;5053552;28;20716;-69
2022/04/17 05:52:58;;;;;;;9.23;3.67;;;;;;;3.18;56.80;102977.75;5053610;28;20271;-74
2022/04/17 05:55:24;;;;;;;8.67;4.30;;;;;;;3.31;55.19;102989.50;5053310;28;20426;-73
2022/04/17 05:57:49;;;;;;;12.00;4.07;;;;;;;3.40;55.49;102983.84;5054031;28;20262;-78
2022/04/17 06:00:16;;;;;;;9.47;4.90;;;;;;;3.48;54.72;102987.97;5056456;28;20037;-75
2022/04/17 06:02:46;;;;;;;9.77;4.20;;;;;;;3.55;54.16;102965.72;5057105;28;20029;-76
2022/04/17 06:05:20;;;;;;;10.53;5.43;;;;;;;3.65;53.77;102967.03;5022332;28;20275;-75
2022/04/17 06:07:45;;;;;;;14.77;4.50;;;;;;;3.74;53.21;102978.03;5053230;28;20271;-74
2022/04/17 06:10:13;;;;;;;7.77;3.70;;;;;;;3.73;52.07;102962.28;5053822;28;20663;-74
2022/04/17 06:12:39;;;;;;;12.17;4.20;;;;;;;3.84;52.05;102967.13;5064242;28;20036;-69
2022/04/17 06:15:06;;;;;;;10.00;4.70;;;;;;;3.89;51.36;102971.28;5075467;28;20971;-72
2022/04/17 06:17:38;;;;;;;11.93;2.70;;;;;;;3.96;50.80;102966.59;5072886;28;20290;-74
2022/04/17 06:20:09;;;;;;;8.23;4.00;;;;;;;4.06;52.11;102961.78;5072453;28;20291;-71
2022/04/17 06:22:35;;;;;;;14.30;4.17;;;;;;;4.15;49.66;102966.66;5072620;28;20279;-70
2022/04/17 06:25:06;;;;;;;9.30;3.93;;;;;;;4.13;49.45;102952.69;5072750;28;20762;-76
2022/04/17 06:27:46;;;;;;;10.73;3.80;;;;;;;4.18;49.95;102966.53;5071642;28;20278;-76
2022/04/17 06:30:17;;;;;;;5.13;3.77;;;;;;;4.23;49.92;102960.09;5077744;28;20317;-71
2022/04/17 06:32:43;;;;;;;7.00;3.50;;;;;;;4.27;49.21;102963.47;5072267;28;20383;-65
2022/04/17 06:35:11;;;;;;;8.40;4.10;;;;;;;4.31;48.93;102965.91;5072631;28;20308;-64
2022/04/17 06:37:48;;;;;;;11.00;3.70;;;;;;;4.43;48.78;102959.22;5072307;28;20290;-65
2022/04/17 06:40:15;;;;;;;7.97;3.43;;;;;;;4.52;48.33;102955.31;5072522;28;20274;-64
2022/04/17 06:42:41;;;;;;;9.87;2.93;;;;;;;4.59;47.95;102954.94;5072186;28;20324;-66
2022/04/17 06:45:07;;;;;;;11.60;3.07;;;;;;;4.64;46.18;102952.97;5072353;28;20255;-63
2022/04/17 06:47:32;;;;;;;11.77;3.63;;;;;;;4.74;45.86;102949.91;5072319;28;20127;-63
2022/04/17 06:49:58;;;;;;;8.73;2.53;;;;;;;4.76;45.63;102950.69;5072241;28;20039;-64
2022/04/17 06:52:23;;;;;;;6.70;3.50;;;;;;;4.86;45.67;102947.53;5072205;28;20068;-65
2022/04/17 06:54:49;;;;;;;8.60;2.93;;;;;;;4.97;45.44;102960.25;5072394;28;20123;-67
2022/04/17 06:57:15;;;;;;;4.47;2.43;;;;;;;5.01;44.56;102948.59;5071408;28;20036;-65
2022/04/17 06:59:40;;;;;;;6.30;2.87;;;;;;;5.08;45.56;102955.31;5070471;28;20419;-66
2022/04/17 07:02:06;;;;;;;7.87;3.00;;;;;;;5.08;44.18;102938.59;5063397;28;20105;-65
2022/04/17 07:04:31;;;;;;;6.87;2.63;;;;;;;5.26;43.22;102959.72;5064790;28;20036;-69
2022/04/17 07:07:22;;;;;;;6.60;2.43;;;;;;;5.34;43.29;102956.69;5071504;28;20135;-71
2022/04/17 07:09:48;;;;;;;8.40;2.27;;;;;;;5.39;42.90;102964.38;5070913;28;20306;-67
2022/04/17 07:12:14;;;;;;;4.10;1.80;;;;;;;5.29;42.77;102959.56;5070796;28;20037;-66
2022/04/17 07:14:40;;;;;;;3.47;1.87;;;;;;;5.33;41.03;102954.97;5072099;28;20044;-67
2022/04/17 07:17:06;;;;;;;5.37;1.70;;;;;;;5.39;41.99;102953.81;5072887;28;20428;-68
2022/04/17 07:19:34;;;;;;;8.07;2.40;;;;;;;5.56;40.59;102957.34;5073608;28;20266;-65
2022/04/17 07:21:59;;;;;;;7.17;2.93;;;;;;;5.64;41.28;102959.59;5072833;28;20298;-68
2022/04/17 07:24:26;;;;;;;3.73;1.83;;;;;;;5.69;41.25;102959.34;5071691;28;20271;-66
2022/04/17 07:26:56;;;;;;;5.93;1.80;;;;;;;5.62;40.29;102956.16;5071387;28;20041;-66
2022/04/17 07:29:23;;;;;;;2.83;2.07;;;;;;;5.58;40.72;102949.31;5071900;28;20379;-68
2022/04/17 07:31:53;;;;;;;2.60;1.73;;;;;;;5.73;39.55;102955.63;5072062;28;20270;-66
2022/04/17 07:34:21;;;;;;;7.27;2.73;;;;;;;5.80;39.74;102944.66;5071561;28;20298;-67
2022/04/17 07:36:47;;;;;;;7.95;1.65;;;;;;;5.88;38.74;102947.78;5071673;28;20262;-67
2022/04/17 07:39:18;;;;;;;14.20;2.30;;;;;;;6.01;39.52;102947.16;5070548;28;20063;-70
2022/04/17 07:41:47;;;;;;;5.97;1.90;;;;;;;6.02;37.38;102956.78;5070793;28;20055;-68
2022/04/17 07:44:13;;;;;;;1.95;1.10;;;;;;;5.94;36.53;102940.47;5071810;28;20292;-68
2022/04/17 07:46:40;;;;;;;3.07;1.83;;;;;;;6.03;38.21;102959.38;5072882;28;20570;-66
2022/04/17 07:49:09;;;;;;;2.50;1.60;;;;;;;5.68;38.73;102880.97;5070339;28;20392;-70
2022/04/17 07:51:38;;;;;;;5.43;1.97;;;;;;;6.10;40.26;102942.25;5071600;28;20750;-70
2022/04/17 07:54:07;;;;;;;;;;;;;;;6.13;40.02;102951.81;5070992;28;20310;-68
2022/04/17 07:56:36;;;;;;;4.97;1.70;;;;;;;6.13;39.32;102947.38;5069456;28;20041;-71
2022/04/17 07:59:05;;;;;;;;;;;;;;;6.18;39.74;102939.22;5072089;28;20567;-70
2022/04/17 08:01:33;;;;;;;2.40;1.50;;;;;;;6.21;38.49;102945.19;5070643;28;19916;-68
2022/04/17 08:03:58;;;;;;;3.33;0.90;;;;;;;6.21;36.87;102936.38;5058152;28;20041;-68
2022/04/17 08:06:30;;;;;;;5.83;1.30;;;;;;;6.22;37.65;102943.41;5050377;28;20039;-70
2022/04/17 08:08:56;;;;;;;2.30;1.63;;;;;;;6.19;37.35;102938.25;5033516;28;20057;-67
2022/04/17 08:11:23;;;;;;;3.10;1.60;;;;;;;6.17;37.32;102930.41;5051387;28;20296;-68
2022/04/17 08:13:49;;;;;;;6.70;1.50;;;;;;;6.22;37.76;102935.47;5051380;28;20025;-67
2022/04/17 08:16:14;;;;;;;5.53;1.73;;;;;;;6.27;37.66;102933.41;5051449;28;20605;-67
2022/04/17 08:18:42;;;;;;;2.73;1.63;;;;;;;6.19;37.28;102927.69;5051222;28;20136;-68
2022/04/17 08:21:08;;;;;;;3.97;1.50;;;;;;;6.28;38.91;102937.78;5051179;28;20111;-67
2022/04/17 08:23:37;;;;;;;5.33;3.50;;;;;;;6.32;36.91;102919.94;5050831;28;20890;-67
2022/04/17 08:26:03;;;;;;;;;;;;;;;6.40;37.37;102929.19;5051623;28;20358;-68
2022/04/17 08:28:29;;;;;;;3.60;2.10;;;;;;;6.33;37.48;102921.63;5051072;28;19928;-67
2022/04/17 08:30:55;;;;;;;3.73;1.43;;;;;;;6.39;37.93;102922.19;5051383;28;20052;-67
2022/04/17 08:33:20;;;;;;;4.50;1.67;;;;;;;6.36;37.87;102917.06;5049747;28;20310;-68
2022/04/17 08:35:46;;;;;;;2.93;1.90;;;;;;;6.38;37.71;102912.53;5051210;28;20037;-68
2022/04/17 08:38:14;;;;;;;4.67;1.83;;;;;;;6.42;38.27;102916.72;5052783;28;20041;-70
2022/04/17 08:40:40;;;;;;;12.98;1.98;;;;;;;6.57;37.81;102908.88;5054795;28;20066;-68
2022/04/17 08:43:08;;;;;;;2.37;1.70;;;;;;;6.67;37.79;102915.38;5055069;28;20535;-68
2022/04/17 08:45:34;;;;;;;2.75;1.30;;;;;;;6.51;37.77;102918.00;5054618;28;20488;-69
2022/04/17 08:48:01;;;;;;;6.13;2.00;;;;;;;6.45;37.45;102911.25;5054468;28;20033;-67
2022/04/17 08:50:26;;;;;;;2.10;1.53;;;;;;;6.48;37.48;102920.81;5054307;28;20424;-67
2022/04/17 08:52:53;;;;;;;4.47;2.20;;;;;;;6.63;37.79;102919.13;5053465;28;20267;-67
2022/04/17 08:55:19;;;;;;;7.30;2.17;;;;;;;6.77;37.47;102921.88;5054679;28;20040;-67
2022/04/17 08:57:45;;;;;;;6.13;1.77;;;;;;;6.81;37.37;102915.47;5054451;28;20025;-68
2022/04/17 09:00:14;;;;;;;6.97;1.97;;;;;;;6.73;36.75;102917.69;5054302;28;20210;-67
2022/04/17 09:02:40;;;;;;;;;;;;;;;6.77;37.37;102916.56;5054786;28;20033;-66
2022/04/17 09:05:09;;;;;;;2.00;1.73;;;;;;;6.67;36.95;102915.38;5053982;28;20441;-67
2022/04/17 09:07:43;;;;;;;;;;;;;;;6.80;38.06;102913.75;5054572;28;20271;-68
2022/04/17 09:10:10;;;;;;;2.77;1.77;;;;;;;6.79;37.12;102914.69;5054109;28;19920;-68
2022/04/17 09:12:36;;;;;;;3.13;1.87;;;;;;;6.71;37.23;102895.75;5054016;28;20267;-67
2022/04/17 09:15:03;;;;;;;5.20;1.83;;;;;;;6.86;36.92;102909.91;5053440;28;20039;-67
2022/04/17 09:17:52;;;;;;;6.13;2.30;;;;;;;6.85;37.00;102898.47;5056498;28;20055;-77
2022/04/17 09:20:24;;;;;;;8.20;3.50;;;;;;;7.04;36.85;102912.38;5054515;28;20548;-70
2022/04/17 09:22:52;;;;;;;5.20;1.70;;;;;;;6.88;36.04;102897.41;5054428;28;20033;-73
2022/04/17 09:25:55;;;;;;;4.35;1.40;;;;;;;6.73;36.11;102900.00;5054049;28;20033;-76
2022/04/17 09:29:10;;;;;;;6.33;1.27;;;;;;;6.72;36.35;102897.44;5040501;28;20033;-78
2022/04/17 09:31:36;;;;;;;2.63;1.43;;;;;;;6.47;36.71;102855.59;5057006;28;20295;-73
2022/04/17 09:34:10;;;;;;;3.70;1.43;;;;;;;6.50;36.70;102847.47;5054179;28;20880;-79
2022/04/17 09:36:37;;;;;;;2.77;1.33;;;;;;;6.83;35.42;102882.66;5053761;28;20502;-75
2022/04/17 09:39:20;;;;;;;2.10;1.40;;;;;;;6.92;35.77;102881.25;5053355;28;20274;-72
2022/04/17 09:42:05;;;;;;;5.63;1.33;;;;;;;7.05;35.36;102889.38;5055336;28;20115;-73
2022/04/17 09:44:47;;;;;;;2.07;1.50;;;;;;;7.08;35.39;102878.59;5053851;28;20041;-78
2022/04/17 09:47:28;;;;;;;3.30;2.10;;;;;;;7.23;35.45;102893.63;5057987;28;20048;-78
2022/04/17 09:50:02;;;;;;;2.43;1.30;;;;;;;7.16;34.99;102889.59;5056297;28;20040;-71
2022/04/17 09:52:48;;;;;;;3.13;1.50;;;;;;;7.18;36.02;102887.72;5073242;28;20182;-76
2022/04/17 09:55:26;;;;;;;5.47;1.30;;;;;;;7.22;35.23;102869.84;5073435;28;20388;-73
2022/04/17 09:58:00;;;;;;;6.53;1.90;;;;;;;7.28;34.75;102874.81;5073392;28;20041;-72
2022/04/17 10:00:26;;;;;;;6.00;2.37;;;;;;;7.33;35.21;102881.53;5073183;28;20162;-74
2022/04/17 10:02:52;;;;;;;7.10;2.20;;;;;;;7.22;35.26;102851.28;5075374;28;20114;-72
2022/04/17 10:05:19;;;;;;;7.50;1.23;;;;;;;7.28;35.02;102857.13;5072922;28;20036;-73
2022/04/17 10:07:56;;;;;;;3.43;1.33;;;;;;;6.97;35.20;102797.13;5073119;28;20261;-77
2022/04/17 10:10:22;;;;;;;1.63;1.10;;;;;;;7.36;34.53;102867.25;5072410;28;20048;-73
2022/04/17 10:12:47;;;;;;;5.47;1.67;;;;;;;7.32;34.52;102866.59;5068639;28;20036;-75
2022/04/17 10:15:16;;;;;;;3.43;1.40;;;;;;;7.37;34.68;102858.34;5052544;28;20408;-70
2022/04/17 10:17:47;;;;;;;;;;;;;;;7.50;35.63;102856.66;5055554;28;20056;-74
2022/04/17 10:20:15;;;;;;;2.97;1.43;;;;;;;7.45;34.54;102842.84;5052847;28;19921;-72
2022/04/17 10:22:47;;;;;;;5.93;1.50;;;;;;;7.59;34.64;102853.50;5052477;28;20039;-71
2022/04/17 10:25:16;;;;;;;4.63;1.23;;;;;;;7.45;34.27;102848.16;5052422;28;20047;-74
2022/04/17 10:28:15;;;;;;;2.63;1.10;;;;;;;7.44;35.15;102846.44;5052547;28;20044;-73
2022/04/17 10:31:06;;;;;;;5.63;1.47;;;;;;;7.53;34.82;102839.75;5019017;28;20052;-70
2022/04/17 10:33:35;;;;;;;6.40;1.40;;;;;;;7.61;34.57;102835.69;5044910;28;20397;-74
2022/04/17 10:36:41;;;;;;;2.05;1.20;;;;;;;7.53;34.26;102831.81;5069680;28;20028;-71
2022/04/17 10:39:36;;;;;;;2.13;1.20;;;;;;;7.59;34.59;102837.59;5031706;28;20408;-73
2022/04/17 10:42:11;;;;;;;5.83;1.30;;;;;;;7.60;34.75;102828.69;5064954;28;20419;-70
2022/04/17 10:44:45;;;;;;;1.50;1.00;;;;;;;7.58;35.29;102822.63;5072132;28;20127;-72
2022/04/17 10:47:20;;;;;;;1.77;1.40;;;;;;;7.60;34.71;102804.81;5074096;28;20430;-72
2022/04/17 10:50:09;;;;;;;4.70;1.60;;;;;;;7.82;34.29;102816.75;5070504;28;20032;-71
2022/04/17 10:52:37;;;;;;;5.67;1.70;;;;;;;7.74;34.31;102810.09;5051511;28;20128;-75
2022/04/17 10:55:11;;;;;;;5.93;1.67;;;;;;;7.87;34.71;102804.91;5071986;28;20044;-69
2022/04/17 10:57:50;;;;;;;2.47;1.37;;;;;;;7.88;33.48;102806.63;5070480;28;20038;-69
2022/04/17 11:00:28;;;;;;;;;;;;;;;7.86;34.62;102808.50;5070005;28;20062;-68
2022/04/17 11:02:58;;;;;;;2.97;1.67;;;;;;;7.80;33.95;102797.41;5070573;28;20383;-70
2022/04/17 11:08:28;;;;;;;4.00;1.60;;;;;;;7.76;34.06;102771.06;5071180;28;20563;-70
2022/04/17 11:11:03;;;;;;;5.43;1.55;;;;;;;7.84;34.50;102791.00;5071194;28;20032;-76
2022/04/17 11:13:28;;;;;;;2.73;1.90;;;;;;;7.87;34.88;102786.34;5067953;28;20052;-70
2022/04/17 11:15:55;;;;;;;4.30;1.60;;;;;;;7.98;34.68;102790.97;5072114;28;20066;-70
2022/04/17 11:18:26;;;;;;;7.37;1.90;;;;;;;7.99;34.58;102788.22;5071785;28;20587;-68
2022/04/17 11:20:55;;;;;;;1.60;1.40;;;;;;;7.99;34.48;102780.25;5069558;28;20194;-72
2022/04/17 11:23:49;;;;;;;3.17;1.80;;;;;;;8.07;34.96;102783.28;5071351;28;20086;-69
2022/04/17 11:26:24;;;;;;;2.83;1.53;;;;;;;8.11;34.83;102775.16;5069778;28;20047;-71
2022/04/17 11:28:58;;;;;;;3.77;1.70;;;;;;;8.14;35.30;102770.50;5075809;28;20051;-75
2022/04/17 11:31:33;;;;;;;6.63;1.80;;;;;;;7.74;35.46;102704.00;5075399;28;20032;-72
2022/04/17 11:34:01;;;;;;;2.40;1.70;;;;;;;7.98;35.06;102777.69;5073088;28;20414;-68
2022/04/17 11:36:27;;;;;;;2.17;1.40;;;;;;;7.95;35.40;102761.97;5072339;28;20282;-73
2022/04/17 11:38:55;;;;;;;4.43;2.20;;;;;;;7.67;35.15;102718.63;5071434;28;20028;-71
2022/04/17 11:41:27;;;;;;;5.80;1.70;;;;;;;7.89;35.83;102765.88;5072114;28;20491;-74
2022/04/17 11:44:00;;;;;;;5.57;2.23;;;;;;;7.93;35.66;102763.88;5075421;28;20032;-74
2022/04/17 11:46:25;;;;;;;3.60;1.83;;;;;;;7.91;35.58;102753.38;5073488;28;20100;-71
2022/04/17 11:48:53;;;;;;;5.47;1.40;;;;;;;7.99;35.50;102760.84;5073157;28;20075;-69
2022/04/17 11:51:20;;;;;;;8.35;2.53;;;;;;;8.02;35.33;102755.31;5071514;28;20036;-68